Startpagina
METAR-TAF:

METAR-TAF

Vliegvelden :

Upington, Zuid-Afrika

breedte: 28-24S, lengte: 021-16E, hoogte: 839 m

Actueel weer

Dit bericht is 29 minuten geleden gemaakt, om 01:00 UTC
Wind 2 kt uit het westzuidwesten
Temperatuur 21°C
Vochtigheid 13%
Druk 1015 hPa
Zicht 10 km of meer
geen wolken onder 1500 m en geen cumulonimbus

METAR: FAUP 290100Z 25002KT CAVOK 21/M08 Q1015 NOSIG

Tijdstip: 03:29 (01:29 UTC)

Verwachting

Dit bericht is 3 uur en het 29 minuten geleden gemaakt, om 22:00 UTC
Verwachting geldig van 29 om 00 UTC tot 29 om 24 UTC
Wind 3 kt uit variabele richting
Zicht 10 km of meer
geen wolken onder 1500 m en geen cumulonimbus
Wijzigt naar
van 29 om 11 UTC tot 29 om 13 UTC
Wind 10 kt uit het westzuidwesten

TAF: FAUP 282200Z 2900/2924 VRB03KT CAVOK TX37/2914Z TN19/2904Z BECMG 2911/2913 24010KT

Waarnemingen en weersverwachtingen van meer dan 4000 vliegvelden (METAR en TAF).

De beschikbare stations zijn de gele en rode punten op de kaart.

Ga met uw muis naar het station om de naam te zien.

Klik dan om waarnemingen en weersverwachtingen te zien.

kaart wijzigen: klik op de groene knoppen met een zwart kruis om in te zoomen, op de groene knop met een streepje om uit te zoomen of op de groene pijlen voor aangrenzende kaarten.


METAR-TAF: